sensor_id;sensor_type;location;lat;lon;timestamp;temperature;humidity
26272;DHT22;13997;48.902;12.472;2022-07-17T00:02:14;384.30;2329.60
26272;DHT22;13997;48.902;12.472;2022-07-17T00:04:40;384.30;2329.60
26272;DHT22;13997;48.902;12.472;2022-07-17T00:07:05;384.20;2329.60
26272;DHT22;13997;48.902;12.472;2022-07-17T00:09:31;384.20;2329.60
26272;DHT22;13997;48.902;12.472;2022-07-17T00:11:56;384.10;2329.60
26272;DHT22;13997;48.902;12.472;2022-07-17T00:14:22;384.10;2329.60
26272;DHT22;13997;48.902;12.472;2022-07-17T00:16:47;384.10;2329.60
26272;DHT22;13997;48.902;12.472;2022-07-17T00:19:13;384.10;2329.60
26272;DHT22;13997;48.902;12.472;2022-07-17T00:21:39;384.00;2329.60
26272;DHT22;13997;48.902;12.472;2022-07-17T00:24:04;359.30;2329.60
26272;DHT22;13997;48.902;12.472;2022-07-17T00:26:32;359.30;2329.60
26272;DHT22;13997;48.902;12.472;2022-07-17T00:28:57;359.20;2329.60
26272;DHT22;13997;48.902;12.472;2022-07-17T00:31:23;359.20;2329.60
26272;DHT22;13997;48.902;12.472;2022-07-17T00:33:49;359.20;2329.60
26272;DHT22;13997;48.902;12.472;2022-07-17T00:36:14;359.20;2329.60
26272;DHT22;13997;48.902;12.472;2022-07-17T00:38:40;359.20;2329.60
26272;DHT22;13997;48.902;12.472;2022-07-17T00:41:06;359.20;2329.60
26272;DHT22;13997;48.902;12.472;2022-07-17T00:43:31;359.10;2329.60
26272;DHT22;13997;48.902;12.472;2022-07-17T00:45:59;359.10;2329.60
26272;DHT22;13997;48.902;12.472;2022-07-17T00:48:26;359.00;2329.60
26272;DHT22;13997;48.902;12.472;2022-07-17T00:50:52;359.00;2329.60
26272;DHT22;13997;48.902;12.472;2022-07-17T00:53:18;359.00;2329.60
26272;DHT22;13997;48.902;12.472;2022-07-17T00:55:45;359.00;2329.60
26272;DHT22;13997;48.902;12.472;2022-07-17T00:58:22;359.00;2329.60
26272;DHT22;13997;48.902;12.472;2022-07-17T01:00:50;359.00;2329.60
26272;DHT22;13997;48.902;12.472;2022-07-17T01:03:17;359.00;2329.60
26272;DHT22;13997;48.902;12.472;2022-07-17T01:05:43;359.00;2329.60
26272;DHT22;13997;48.902;12.472;2022-07-17T01:08:09;359.00;2329.60
26272;DHT22;13997;48.902;12.472;2022-07-17T01:10:35;358.90;2329.60
26272;DHT22;13997;48.902;12.472;2022-07-17T01:13:01;358.90;2329.60
26272;DHT22;13997;48.902;12.472;2022-07-17T01:15:26;358.90;2329.60
26272;DHT22;13997;48.902;12.472;2022-07-17T01:17:52;358.90;2329.60
26272;DHT22;13997;48.902;12.472;2022-07-17T01:20:18;358.80;2329.60
26272;DHT22;13997;48.902;12.472;2022-07-17T01:22:46;358.80;2329.60
26272;DHT22;13997;48.902;12.472;2022-07-17T01:25:13;358.80;2329.60
26272;DHT22;13997;48.902;12.472;2022-07-17T01:27:39;358.80;2329.60
26272;DHT22;13997;48.902;12.472;2022-07-17T01:30:06;358.70;2329.60
26272;DHT22;13997;48.902;12.472;2022-07-17T01:32:38;358.70;2329.60
26272;DHT22;13997;48.902;12.472;2022-07-17T01:35:04;358.70;2329.60
26272;DHT22;13997;48.902;12.472;2022-07-17T01:37:31;358.70;2329.60
26272;DHT22;13997;48.902;12.472;2022-07-17T01:39:57;358.60;2329.60
26272;DHT22;13997;48.902;12.472;2022-07-17T01:42:24;358.50;2329.60
26272;DHT22;13997;48.902;12.472;2022-07-17T01:44:50;358.50;2329.60
26272;DHT22;13997;48.902;12.472;2022-07-17T01:47:17;358.40;2329.60
26272;DHT22;13997;48.902;12.472;2022-07-17T01:49:44;358.40;2329.60
26272;DHT22;13997;48.902;12.472;2022-07-17T01:52:09;358.40;2329.60
26272;DHT22;13997;48.902;12.472;2022-07-17T01:54:35;333.70;2329.60
26272;DHT22;13997;48.902;12.472;2022-07-17T01:57:00;333.70;2329.60
26272;DHT22;13997;48.902;12.472;2022-07-17T01:59:26;333.70;2329.60
26272;DHT22;13997;48.902;12.472;2022-07-17T02:01:51;333.70;2329.60
26272;DHT22;13997;48.902;12.472;2022-07-17T02:04:17;333.70;2329.60
26272;DHT22;13997;48.902;12.472;2022-07-17T02:06:43;333.60;2329.60
26272;DHT22;13997;48.902;12.472;2022-07-17T02:09:08;333.60;2329.60
26272;DHT22;13997;48.902;12.472;2022-07-17T02:11:34;333.50;2329.60
26272;DHT22;13997;48.902;12.472;2022-07-17T02:14:00;333.50;2329.60
26272;DHT22;13997;48.902;12.472;2022-07-17T02:16:25;333.50;2329.60
26272;DHT22;13997;48.902;12.472;2022-07-17T02:18:51;333.50;2329.60
26272;DHT22;13997;48.902;12.472;2022-07-17T02:21:17;333.50;2329.60
26272;DHT22;13997;48.902;12.472;2022-07-17T02:23:42;333.50;2329.60
26272;DHT22;13997;48.902;12.472;2022-07-17T02:26:08;333.50;2329.60
26272;DHT22;13997;48.902;12.472;2022-07-17T02:28:34;333.50;2329.60
26272;DHT22;13997;48.902;12.472;2022-07-17T02:31:00;333.50;2329.60
26272;DHT22;13997;48.902;12.472;2022-07-17T02:33:26;333.50;2329.60
26272;DHT22;13997;48.902;12.472;2022-07-17T02:41:00;333.40;2329.60
26272;DHT22;13997;48.902;12.472;2022-07-17T02:43:26;333.40;2329.60
26272;DHT22;13997;48.902;12.472;2022-07-17T02:45:51;333.40;2329.60
26272;DHT22;13997;48.902;12.472;2022-07-17T02:48:17;333.40;2329.60
26272;DHT22;13997;48.902;12.472;2022-07-17T02:50:42;333.40;2329.60
26272;DHT22;13997;48.902;12.472;2022-07-17T02:53:08;333.30;2329.60
26272;DHT22;13997;48.902;12.472;2022-07-17T02:55:33;333.30;2329.60
26272;DHT22;13997;48.902;12.472;2022-07-17T02:57:59;333.20;2329.60
26272;DHT22;13997;48.902;12.472;2022-07-17T03:00:25;333.10;2329.60
26272;DHT22;13997;48.902;12.472;2022-07-17T03:02:52;333.00;2329.60
26272;DHT22;13997;48.902;12.472;2022-07-17T03:05:18;332.90;2329.60
26272;DHT22;13997;48.902;12.472;2022-07-17T03:07:45;332.90;2329.60
26272;DHT22;13997;48.902;12.472;2022-07-17T03:10:11;332.90;2329.60
26272;DHT22;13997;48.902;12.472;2022-07-17T03:12:37;332.90;2329.60
26272;DHT22;13997;48.902;12.472;2022-07-17T03:15:04;332.90;2329.60
26272;DHT22;13997;48.902;12.472;2022-07-17T03:17:30;332.80;2329.60
26272;DHT22;13997;48.902;12.472;2022-07-17T03:19:55;332.80;2329.60
26272;DHT22;13997;48.902;12.472;2022-07-17T03:22:21;332.80;2329.60
26272;DHT22;13997;48.902;12.472;2022-07-17T03:24:47;332.80;2329.60
26272;DHT22;13997;48.902;12.472;2022-07-17T03:27:12;332.80;2329.60
26272;DHT22;13997;48.902;12.472;2022-07-17T03:29:38;332.80;2329.60
26272;DHT22;13997;48.902;12.472;2022-07-17T03:32:04;332.80;2329.60
26272;DHT22;13997;48.902;12.472;2022-07-17T03:34:30;332.80;2329.60
26272;DHT22;13997;48.902;12.472;2022-07-17T03:36:55;332.80;2329.60
26272;DHT22;13997;48.902;12.472;2022-07-17T03:39:21;332.80;2329.60
26272;DHT22;13997;48.902;12.472;2022-07-17T03:41:46;332.80;2329.60
26272;DHT22;13997;48.902;12.472;2022-07-17T03:44:12;332.80;2329.60
26272;DHT22;13997;48.902;12.472;2022-07-17T03:46:38;332.80;2329.60
26272;DHT22;13997;48.902;12.472;2022-07-17T03:49:04;308.10;2304.00
26272;DHT22;13997;48.902;12.472;2022-07-17T03:51:29;308.10;2304.00
26272;DHT22;13997;48.902;12.472;2022-07-17T03:53:55;308.10;2304.00
26272;DHT22;13997;48.902;12.472;2022-07-17T03:56:21;308.10;2304.00
26272;DHT22;13997;48.902;12.472;2022-07-17T03:58:46;308.10;2304.00
26272;DHT22;13997;48.902;12.472;2022-07-17T04:01:12;308.10;2304.00
26272;DHT22;13997;48.902;12.472;2022-07-17T04:03:37;308.10;2304.00
26272;DHT22;13997;48.902;12.472;2022-07-17T04:06:03;308.10;2304.00
26272;DHT22;13997;48.902;12.472;2022-07-17T04:08:29;308.00;2304.00
26272;DHT22;13997;48.902;12.472;2022-07-17T04:10:55;308.00;2304.00
26272;DHT22;13997;48.902;12.472;2022-07-17T04:13:20;308.00;2304.00
26272;DHT22;13997;48.902;12.472;2022-07-17T04:15:46;308.00;2304.00
26272;DHT22;13997;48.902;12.472;2022-07-17T04:18:15;308.00;2304.00
26272;DHT22;13997;48.902;12.472;2022-07-17T04:20:41;308.00;2304.00
26272;DHT22;13997;48.902;12.472;2022-07-17T04:23:07;308.00;2304.00
26272;DHT22;13997;48.902;12.472;2022-07-17T04:25:33;308.10;2304.00
26272;DHT22;13997;48.902;12.472;2022-07-17T04:27:58;308.10;2304.00
26272;DHT22;13997;48.902;12.472;2022-07-17T04:30:24;308.10;2304.00
26272;DHT22;13997;48.902;12.472;2022-07-17T04:32:49;332.80;2329.60
26272;DHT22;13997;48.902;12.472;2022-07-17T04:35:15;332.90;2329.60
26272;DHT22;13997;48.902;12.472;2022-07-17T04:37:41;332.80;2329.60
26272;DHT22;13997;48.902;12.472;2022-07-17T04:40:07;332.90;2329.60
26272;DHT22;13997;48.902;12.472;2022-07-17T04:42:33;332.90;2329.60
26272;DHT22;13997;48.902;12.472;2022-07-17T04:44:58;332.90;2329.60
26272;DHT22;13997;48.902;12.472;2022-07-17T04:47:24;333.00;2329.60
26272;DHT22;13997;48.902;12.472;2022-07-17T04:49:49;333.10;2329.60
26272;DHT22;13997;48.902;12.472;2022-07-17T04:52:15;333.20;2329.60
26272;DHT22;13997;48.902;12.472;2022-07-17T04:54:41;333.20;2329.60
26272;DHT22;13997;48.902;12.472;2022-07-17T04:57:07;333.30;2329.60
26272;DHT22;13997;48.902;12.472;2022-07-17T04:59:32;333.40;2329.60
26272;DHT22;13997;48.902;12.472;2022-07-17T05:01:58;333.50;2329.60
26272;DHT22;13997;48.902;12.472;2022-07-17T05:04:24;333.60;2329.60
26272;DHT22;13997;48.902;12.472;2022-07-17T05:06:49;358.40;2329.60
26272;DHT22;13997;48.902;12.472;2022-07-17T05:09:15;358.50;2329.60
26272;DHT22;13997;48.902;12.472;2022-07-17T05:11:41;358.60;2329.60
26272;DHT22;13997;48.902;12.472;2022-07-17T05:14:06;358.80;2329.60
26272;DHT22;13997;48.902;12.472;2022-07-17T05:16:32;359.00;2329.60
26272;DHT22;13997;48.902;12.472;2022-07-17T05:18:57;359.10;2329.60
26272;DHT22;13997;48.902;12.472;2022-07-17T05:21:23;359.30;2329.60
26272;DHT22;13997;48.902;12.472;2022-07-17T05:26:15;384.20;2329.60
26272;DHT22;13997;48.902;12.472;2022-07-17T05:28:40;384.40;2329.60
26272;DHT22;13997;48.902;12.472;2022-07-17T05:31:06;384.50;2329.60
26272;DHT22;13997;48.902;12.472;2022-07-17T05:33:32;384.70;2329.60
26272;DHT22;13997;48.902;12.472;2022-07-17T05:35:57;384.90;2329.60
26272;DHT22;13997;48.902;12.472;2022-07-17T05:38:23;409.70;2355.20
26272;DHT22;13997;48.902;12.472;2022-07-17T05:40:49;409.80;2355.20
26272;DHT22;13997;48.902;12.472;2022-07-17T05:43:14;410.00;2355.20
26272;DHT22;13997;48.902;12.472;2022-07-17T05:45:40;410.10;2355.20
26272;DHT22;13997;48.902;12.472;2022-07-17T05:48:06;410.40;2355.20
26272;DHT22;13997;48.902;12.472;2022-07-17T05:50:33;435.20;2355.20
26272;DHT22;13997;48.902;12.472;2022-07-17T05:52:59;435.30;2355.20
26272;DHT22;13997;48.902;12.472;2022-07-17T05:55:24;435.40;2355.20
26272;DHT22;13997;48.902;12.472;2022-07-17T05:57:50;435.50;2355.20
26272;DHT22;13997;48.902;12.472;2022-07-17T06:00:16;435.80;2355.20
26272;DHT22;13997;48.902;12.472;2022-07-17T06:02:41;436.00;2355.20
26272;DHT22;13997;48.902;12.472;2022-07-17T06:05:07;436.10;2355.20
26272;DHT22;13997;48.902;12.472;2022-07-17T06:07:33;460.90;2380.80
26272;DHT22;13997;48.902;12.472;2022-07-17T06:09:59;461.00;2380.80
26272;DHT22;13997;48.902;12.472;2022-07-17T06:12:24;461.10;2380.80
26272;DHT22;13997;48.902;12.472;2022-07-17T06:14:50;461.20;2380.80
26272;DHT22;13997;48.902;12.472;2022-07-17T06:17:16;461.20;2380.80
26272;DHT22;13997;48.902;12.472;2022-07-17T06:19:41;461.30;2380.80
26272;DHT22;13997;48.902;12.472;2022-07-17T06:22:07;461.40;2380.80
26272;DHT22;13997;48.902;12.472;2022-07-17T06:24:32;461.40;2380.80
26272;DHT22;13997;48.902;12.472;2022-07-17T06:26:58;461.50;2380.80
26272;DHT22;13997;48.902;12.472;2022-07-17T06:29:24;461.60;2380.80
26272;DHT22;13997;48.902;12.472;2022-07-17T06:31:49;461.70;2380.80
26272;DHT22;13997;48.902;12.472;2022-07-17T06:34:15;486.40;2380.80
26272;DHT22;13997;48.902;12.472;2022-07-17T06:36:40;486.60;2380.80
26272;DHT22;13997;48.902;12.472;2022-07-17T06:43:58;486.70;2380.80
26272;DHT22;13997;48.902;12.472;2022-07-17T06:48:49;487.00;2380.80
26272;DHT22;13997;48.902;12.472;2022-07-17T06:51:18;487.30;2380.80
26272;DHT22;13997;48.902;12.472;2022-07-17T06:53:44;512.00;2380.80
26272;DHT22;13997;48.902;12.472;2022-07-17T06:56:09;512.10;2380.80
26272;DHT22;13997;48.902;12.472;2022-07-17T07:05:53;512.20;2380.80
26272;DHT22;13997;48.902;12.472;2022-07-17T07:08:20;512.50;2380.80
26272;DHT22;13997;48.902;12.472;2022-07-17T07:10:46;512.50;2380.80
26272;DHT22;13997;48.902;12.472;2022-07-17T07:13:11;512.40;2380.80
26272;DHT22;13997;48.902;12.472;2022-07-17T07:15:37;512.60;2380.80
26272;DHT22;13997;48.902;12.472;2022-07-17T07:18:03;512.60;2380.80
26272;DHT22;13997;48.902;12.472;2022-07-17T07:20:29;512.80;2380.80
26272;DHT22;13997;48.902;12.472;2022-07-17T07:22:54;512.90;2380.80
26272;DHT22;13997;48.902;12.472;2022-07-17T07:25:20;537.60;2406.40
26272;DHT22;13997;48.902;12.472;2022-07-17T07:27:46;512.80;2380.80
26272;DHT22;13997;48.902;12.472;2022-07-17T07:30:12;512.80;2380.80
26272;DHT22;13997;48.902;12.472;2022-07-17T07:32:39;512.90;2380.80
26272;DHT22;13997;48.902;12.472;2022-07-17T07:35:06;537.60;2406.40
26272;DHT22;13997;48.902;12.472;2022-07-17T07:37:32;537.70;2406.40
26272;DHT22;13997;48.902;12.472;2022-07-17T07:39:57;537.80;2406.40
26272;DHT22;13997;48.902;12.472;2022-07-17T07:42:23;538.10;2406.40
26272;DHT22;13997;48.902;12.472;2022-07-17T07:44:49;538.10;2406.40
26272;DHT22;13997;48.902;12.472;2022-07-17T07:47:14;538.20;2406.40
26272;DHT22;13997;48.902;12.472;2022-07-17T07:54:32;538.20;2406.40
26272;DHT22;13997;48.902;12.472;2022-07-17T07:56:58;538.50;2406.40
26272;DHT22;13997;48.902;12.472;2022-07-17T07:59:24;563.20;2432.00
26272;DHT22;13997;48.902;12.472;2022-07-17T08:40:50;614.40;2176.00
26272;DHT22;13997;48.902;12.472;2022-07-17T08:43:18;589.40;2124.80
26272;DHT22;13997;48.902;12.472;2022-07-17T08:45:44;589.20;2227.20
26272;DHT22;13997;48.902;12.472;2022-07-17T08:48:13;589.20;2227.20
26272;DHT22;13997;48.902;12.472;2022-07-17T08:50:40;589.00;2176.00
26272;DHT22;13997;48.902;12.472;2022-07-17T08:53:06;589.00;2176.00
26272;DHT22;13997;48.902;12.472;2022-07-17T08:55:32;589.20;2150.40
26272;DHT22;13997;48.902;12.472;2022-07-17T08:57:58;589.20;2227.20
26272;DHT22;13997;48.902;12.472;2022-07-17T09:00:25;589.30;2176.00
26272;DHT22;13997;48.902;12.472;2022-07-17T09:05:21;614.60;2150.40
26272;DHT22;13997;48.902;12.472;2022-07-17T09:07:47;614.90;2099.20
26272;DHT22;13997;48.902;12.472;2022-07-17T09:12:40;640.10;2022.40
26272;DHT22;13997;48.902;12.472;2022-07-17T09:15:18;640.10;2073.60
26272;DHT22;13997;48.902;12.472;2022-07-17T09:17:52;640.20;1920.00
26272;DHT22;13997;48.902;12.472;2022-07-17T09:20:19;640.10;1945.60
26272;DHT22;13997;48.902;12.472;2022-07-17T09:23:00;640.20;1843.20
26272;DHT22;13997;48.902;12.472;2022-07-17T09:25:34;640.20;1920.00
26272;DHT22;13997;48.902;12.472;2022-07-17T09:28:02;640.20;1868.80
26272;DHT22;13997;48.902;12.472;2022-07-17T09:30:29;640.20;1817.60
26272;DHT22;13997;48.902;12.472;2022-07-17T09:32:55;640.30;1843.20
26272;DHT22;13997;48.902;12.472;2022-07-17T09:35:22;640.30;1817.60
26272;DHT22;13997;48.902;12.472;2022-07-17T09:37:47;640.60;1817.60
26272;DHT22;13997;48.902;12.472;2022-07-17T09:40:16;640.60;1740.80
26272;DHT22;13997;48.902;12.472;2022-07-17T09:43:02;640.70;1843.20
26272;DHT22;13997;48.902;12.472;2022-07-17T09:45:27;640.50;1715.20
26272;DHT22;13997;48.902;12.472;2022-07-17T09:47:53;640.50;1740.80
26272;DHT22;13997;48.902;12.472;2022-07-17T09:50:20;640.60;1689.60
26272;DHT22;13997;48.902;12.472;2022-07-17T09:52:49;640.20;1715.20
26272;DHT22;13997;48.902;12.472;2022-07-17T09:55:16;640.20;1740.80
26272;DHT22;13997;48.902;12.472;2022-07-17T09:57:43;640.30;1740.80
26272;DHT22;13997;48.902;12.472;2022-07-17T10:00:12;640.40;1766.40
26272;DHT22;13997;48.902;12.472;2022-07-17T10:02:42;640.70;1740.80
26272;DHT22;13997;48.902;12.472;2022-07-17T10:05:12;640.90;1766.40
26272;DHT22;13997;48.902;12.472;2022-07-17T10:07:44;640.90;1715.20
26272;DHT22;13997;48.902;12.472;2022-07-17T10:10:12;665.70;1715.20
26272;DHT22;13997;48.902;12.472;2022-07-17T10:12:41;665.90;1715.20
26272;DHT22;13997;48.902;12.472;2022-07-17T10:15:08;666.00;1689.60
26272;DHT22;13997;48.902;12.472;2022-07-17T10:17:34;666.10;1766.40
26272;DHT22;13997;48.902;12.472;2022-07-17T10:20:00;666.40;1664.00
26272;DHT22;13997;48.902;12.472;2022-07-17T10:22:26;691.30;1612.80
26272;DHT22;13997;48.902;12.472;2022-07-17T10:24:54;691.50;1664.00
26272;DHT22;13997;48.902;12.472;2022-07-17T10:30:05;691.50;1612.80
26272;DHT22;13997;48.902;12.472;2022-07-17T10:32:32;691.40;1587.20
26272;DHT22;13997;48.902;12.472;2022-07-17T10:35:08;691.40;1612.80
26272;DHT22;13997;48.902;12.472;2022-07-17T10:42:56;691.90;1612.80
26272;DHT22;13997;48.902;12.472;2022-07-17T10:45:25;692.00;1587.20
26272;DHT22;13997;48.902;12.472;2022-07-17T10:48:00;692.00;1561.60
26272;DHT22;13997;48.902;12.472;2022-07-17T10:50:31;691.90;1561.60
26272;DHT22;13997;48.902;12.472;2022-07-17T10:53:16;692.10;1561.60
26272;DHT22;13997;48.902;12.472;2022-07-17T10:55:47;692.10;1484.80
26272;DHT22;13997;48.902;12.472;2022-07-17T10:58:34;716.90;1561.60
26272;DHT22;13997;48.902;12.472;2022-07-17T11:01:15;717.00;1561.60
26272;DHT22;13997;48.902;12.472;2022-07-17T11:03:55;717.40;1510.40
26272;DHT22;13997;48.902;12.472;2022-07-17T11:06:22;717.50;1510.40
26272;DHT22;13997;48.902;12.472;2022-07-17T11:11:19;717.40;1484.80
26272;DHT22;13997;48.902;12.472;2022-07-17T11:13:45;717.40;1484.80
26272;DHT22;13997;48.902;12.472;2022-07-17T11:16:10;717.50;1484.80
26272;DHT22;13997;48.902;12.472;2022-07-17T11:18:36;717.50;1433.60
26272;DHT22;13997;48.902;12.472;2022-07-17T11:21:04;717.40;1433.60
26272;DHT22;13997;48.902;12.472;2022-07-17T11:23:32;717.50;1484.80
26272;DHT22;13997;48.902;12.472;2022-07-17T11:26:03;717.60;1459.20
26272;DHT22;13997;48.902;12.472;2022-07-17T11:31:00;717.60;1408.00
26272;DHT22;13997;48.902;12.472;2022-07-17T11:33:26;717.30;1408.00
26272;DHT22;13997;48.902;12.472;2022-07-17T11:35:52;717.00;1408.00
26272;DHT22;13997;48.902;12.472;2022-07-17T11:38:27;692.00;1408.00
26272;DHT22;13997;48.902;12.472;2022-07-17T11:40:53;691.90;1433.60
26272;DHT22;13997;48.902;12.472;2022-07-17T11:43:19;692.10;1459.20
26272;DHT22;13997;48.902;12.472;2022-07-17T11:45:46;717.00;1484.80
26272;DHT22;13997;48.902;12.472;2022-07-17T11:48:11;716.90;1433.60
26272;DHT22;13997;48.902;12.472;2022-07-17T11:50:37;717.10;1459.20
26272;DHT22;13997;48.902;12.472;2022-07-17T11:53:04;717.20;1408.00
26272;DHT22;13997;48.902;12.472;2022-07-17T11:55:37;717.20;1408.00
26272;DHT22;13997;48.902;12.472;2022-07-17T11:58:03;716.90;1408.00
26272;DHT22;13997;48.902;12.472;2022-07-17T12:00:30;716.90;1433.60
26272;DHT22;13997;48.902;12.472;2022-07-17T12:03:05;717.00;1433.60
26272;DHT22;13997;48.902;12.472;2022-07-17T12:05:33;717.00;1382.40
26272;DHT22;13997;48.902;12.472;2022-07-17T12:08:00;717.00;1408.00
26272;DHT22;13997;48.902;12.472;2022-07-17T12:10:28;717.20;1408.00
26272;DHT22;13997;48.902;12.472;2022-07-17T12:13:03;717.40;1408.00
26272;DHT22;13997;48.902;12.472;2022-07-17T12:18:04;717.20;1356.80
26272;DHT22;13997;48.902;12.472;2022-07-17T12:20:44;717.10;1356.80
26272;DHT22;13997;48.902;12.472;2022-07-17T12:23:33;716.80;1382.40
26272;DHT22;13997;48.902;12.472;2022-07-17T12:26:13;716.80;1433.60
26272;DHT22;13997;48.902;12.472;2022-07-17T12:28:43;717.00;1382.40
26272;DHT22;13997;48.902;12.472;2022-07-17T12:31:10;717.30;1408.00
26272;DHT22;13997;48.902;12.472;2022-07-17T12:33:36;717.50;1356.80
26272;DHT22;13997;48.902;12.472;2022-07-17T12:36:01;717.40;1356.80
26272;DHT22;13997;48.902;12.472;2022-07-17T12:38:27;717.40;1382.40
26272;DHT22;13997;48.902;12.472;2022-07-17T12:40:53;717.60;1356.80
26272;DHT22;13997;48.902;12.472;2022-07-17T12:43:19;717.60;1331.20
26272;DHT22;13997;48.902;12.472;2022-07-17T12:45:44;717.50;1356.80
26272;DHT22;13997;48.902;12.472;2022-07-17T12:48:11;717.40;1356.80
26272;DHT22;13997;48.902;12.472;2022-07-17T12:50:37;717.40;1382.40
26272;DHT22;13997;48.902;12.472;2022-07-17T12:53:03;742.50;1382.40
26272;DHT22;13997;48.902;12.472;2022-07-17T12:55:29;742.50;1331.20
26272;DHT22;13997;48.902;12.472;2022-07-17T12:57:54;717.70;1331.20
26272;DHT22;13997;48.902;12.472;2022-07-17T13:00:20;717.60;1331.20
26272;DHT22;13997;48.902;12.472;2022-07-17T13:02:45;717.60;1331.20
26272;DHT22;13997;48.902;12.472;2022-07-17T13:05:11;717.40;1356.80
26272;DHT22;13997;48.902;12.472;2022-07-17T13:07:37;717.40;1331.20
26272;DHT22;13997;48.902;12.472;2022-07-17T13:10:03;717.70;1331.20
26272;DHT22;13997;48.902;12.472;2022-07-17T13:12:29;742.60;1356.80
26272;DHT22;13997;48.902;12.472;2022-07-17T13:14:54;742.60;1331.20
26272;DHT22;13997;48.902;12.472;2022-07-17T13:17:20;742.70;1331.20
26272;DHT22;13997;48.902;12.472;2022-07-17T13:19:45;742.60;1305.60
26272;DHT22;13997;48.902;12.472;2022-07-17T13:22:11;742.70;1331.20
26272;DHT22;13997;48.902;12.472;2022-07-17T13:24:37;742.90;1331.20
26272;DHT22;13997;48.902;12.472;2022-07-17T13:27:03;743.00;1280.00
26272;DHT22;13997;48.902;12.472;2022-07-17T13:29:28;743.10;1305.60
26272;DHT22;13997;48.902;12.472;2022-07-17T13:31:54;743.00;1280.00
26272;DHT22;13997;48.902;12.472;2022-07-17T13:34:21;742.80;1280.00
26272;DHT22;13997;48.902;12.472;2022-07-17T13:36:47;742.90;1305.60
26272;DHT22;13997;48.902;12.472;2022-07-17T13:39:13;742.90;1280.00
26272;DHT22;13997;48.902;12.472;2022-07-17T13:41:40;743.00;1305.60
26272;DHT22;13997;48.902;12.472;2022-07-17T13:44:06;743.20;1280.00
26272;DHT22;13997;48.902;12.472;2022-07-17T13:46:32;743.20;1254.40
26272;DHT22;13997;48.902;12.472;2022-07-17T13:48:58;743.10;1254.40
26272;DHT22;13997;48.902;12.472;2022-07-17T13:51:25;743.00;1254.40
26272;DHT22;13997;48.902;12.472;2022-07-17T13:53:51;743.00;1254.40
26272;DHT22;13997;48.902;12.472;2022-07-17T13:56:16;742.90;1254.40
26272;DHT22;13997;48.902;12.472;2022-07-17T13:58:42;742.90;1254.40
26272;DHT22;13997;48.902;12.472;2022-07-17T14:01:08;743.00;1203.20
26272;DHT22;13997;48.902;12.472;2022-07-17T14:03:34;743.00;1228.80
26272;DHT22;13997;48.902;12.472;2022-07-17T14:05:59;743.00;1228.80
26272;DHT22;13997;48.902;12.472;2022-07-17T14:08:25;743.00;1228.80
26272;DHT22;13997;48.902;12.472;2022-07-17T14:10:50;742.70;1203.20
26272;DHT22;13997;48.902;12.472;2022-07-17T14:13:16;742.80;1254.40
26272;DHT22;13997;48.902;12.472;2022-07-17T14:15:41;742.90;1228.80
26272;DHT22;13997;48.902;12.472;2022-07-17T14:18:07;742.90;1254.40
26272;DHT22;13997;48.902;12.472;2022-07-17T14:20:33;742.90;1254.40
26272;DHT22;13997;48.902;12.472;2022-07-17T14:22:58;743.00;1203.20
26272;DHT22;13997;48.902;12.472;2022-07-17T14:25:24;743.00;1203.20
26272;DHT22;13997;48.902;12.472;2022-07-17T14:27:50;742.70;1228.80
26272;DHT22;13997;48.902;12.472;2022-07-17T14:30:15;742.70;1228.80
26272;DHT22;13997;48.902;12.472;2022-07-17T14:32:41;742.70;1228.80
26272;DHT22;13997;48.902;12.472;2022-07-17T14:35:07;743.00;1228.80
26272;DHT22;13997;48.902;12.472;2022-07-17T14:37:33;742.90;1177.60
26272;DHT22;13997;48.902;12.472;2022-07-17T14:39:59;743.00;1203.20
26272;DHT22;13997;48.902;12.472;2022-07-17T14:42:26;743.10;1152.00
26272;DHT22;13997;48.902;12.472;2022-07-17T14:44:52;743.10;1177.60
26272;DHT22;13997;48.902;12.472;2022-07-17T14:47:18;743.00;1203.20
26272;DHT22;13997;48.902;12.472;2022-07-17T14:49:44;743.20;1177.60
26272;DHT22;13997;48.902;12.472;2022-07-17T14:52:10;743.20;1152.00
26272;DHT22;13997;48.902;12.472;2022-07-17T14:54:35;743.20;1152.00
26272;DHT22;13997;48.902;12.472;2022-07-17T14:57:01;743.30;1177.60
26272;DHT22;13997;48.902;12.472;2022-07-17T14:59:27;743.10;1177.60
26272;DHT22;13997;48.902;12.472;2022-07-17T15:01:53;743.10;1177.60
26272;DHT22;13997;48.902;12.472;2022-07-17T15:04:18;743.00;1152.00
26272;DHT22;13997;48.902;12.472;2022-07-17T15:06:44;743.00;1152.00
26272;DHT22;13997;48.902;12.472;2022-07-17T15:09:10;743.00;1126.40
26272;DHT22;13997;48.902;12.472;2022-07-17T15:11:36;743.00;1126.40
26272;DHT22;13997;48.902;12.472;2022-07-17T15:14:02;743.00;1177.60
26272;DHT22;13997;48.902;12.472;2022-07-17T15:16:28;743.00;1152.00
26272;DHT22;13997;48.902;12.472;2022-07-17T15:18:53;742.90;1152.00
26272;DHT22;13997;48.902;12.472;2022-07-17T15:21:19;742.70;1177.60
26272;DHT22;13997;48.902;12.472;2022-07-17T15:23:44;742.70;1203.20
26272;DHT22;13997;48.902;12.472;2022-07-17T15:26:10;742.70;1177.60
26272;DHT22;13997;48.902;12.472;2022-07-17T15:28:36;742.70;1177.60
26272;DHT22;13997;48.902;12.472;2022-07-17T15:31:01;742.90;1177.60
26272;DHT22;13997;48.902;12.472;2022-07-17T15:33:27;742.90;1152.00
26272;DHT22;13997;48.902;12.472;2022-07-17T15:35:52;743.00;1100.80
26272;DHT22;13997;48.902;12.472;2022-07-17T15:38:18;743.00;1152.00
26272;DHT22;13997;48.902;12.472;2022-07-17T15:40:43;742.90;1126.40
26272;DHT22;13997;48.902;12.472;2022-07-17T15:43:09;742.90;1152.00
26272;DHT22;13997;48.902;12.472;2022-07-17T15:45:35;743.00;1152.00
26272;DHT22;13997;48.902;12.472;2022-07-17T15:48:00;743.00;1177.60
26272;DHT22;13997;48.902;12.472;2022-07-17T15:50:26;743.10;1177.60
26272;DHT22;13997;48.902;12.472;2022-07-17T15:52:52;743.00;1177.60
26272;DHT22;13997;48.902;12.472;2022-07-17T15:55:17;743.00;1177.60
26272;DHT22;13997;48.902;12.472;2022-07-17T15:57:44;742.80;1152.00
26272;DHT22;13997;48.902;12.472;2022-07-17T16:00:10;742.90;1152.00